Weather at John'S Field

Public forecast

Using degrees Fahrenheit for public forecast. Weather courtesy of forecast.io.

Closest aviation weather report (METAR) to John'S Field

Closest report is Taylor County Airport, 11.0 nm (20.4 km) WSW. Retrieved 2020/10/28 16:35 UTC (5 minutes ago):

KMDZ 281635Z AUTO 25005KT 10SM OVC100 03/M04 A2984 RMK AO2 T00281037

Closest aviation forecast (TAF) to John'S Field

Closest forecast is Wausau Downtown Airport, 23.0 nm (42.6 km) SE. Retrieved 2020/10/28 12:40 UTC (4 hours ago):

TAF KAUW 281138Z 2812/2912 24009KT P6SM OVC045 FM281400 26008G16KT P6SM SCT045 FM282200 28005KT P6SM SCT035 FM290200 33004KT P6SM BKN025 FM291000 36005KT P6SM BKN020